Time;durP1;ratioP1;P1;durP2;ratioP2;P2;SDS_P1;SDS_P2;PMS_P1;PMS_P2;Temp;Humidity;BMP_temperature;BMP_pressure;BME280_temperature;BME280_humidity;BME280_pressure;Samples;Min_cycle;Max_cycle;Signal;HPM_P1;HPM_P2
2022/11/16 00:00:49;;;;;;;7.15;4.47;;;15.00;61.80;;;;;;5081783;28;20051;-51
2022/11/16 00:03:17;;;;;;;7.13;3.88;;;15.10;61.90;;;;;;5084227;28;20056;-52
2022/11/16 00:05:45;;;;;;;7.10;4.55;;;15.10;61.90;;;;;;5080682;28;20048;-51
2022/11/16 00:08:12;;;;;;;4.53;3.60;;;15.10;62.00;;;;;;5081902;28;20236;-51
2022/11/16 00:10:40;;;;;;;4.85;4.03;;;15.10;62.00;;;;;;5082546;28;20051;-52
2022/11/16 00:13:07;;;;;;;4.95;3.85;;;15.00;61.90;;;;;;5082923;28;20510;-53
2022/11/16 00:15:35;;;;;;;5.22;3.92;;;15.00;61.90;;;;;;5083617;28;20051;-51
2022/11/16 00:18:02;;;;;;;4.90;4.10;;;15.10;62.10;;;;;;5080863;28;20059;-49
2022/11/16 00:20:29;;;;;;;4.80;3.53;;;15.00;62.00;;;;;;5078117;28;20051;-51
2022/11/16 00:22:58;;;;;;;7.15;4.45;;;15.00;62.10;;;;;;5084066;28;20056;-52
2022/11/16 00:25:25;;;;;;;8.25;4.40;;;15.10;62.10;;;;;;5082587;28;20062;-51
2022/11/16 00:27:52;;;;;;;6.55;4.32;;;15.10;62.20;;;;;;5083664;28;20503;-51
2022/11/16 00:30:19;;;;;;;6.22;4.10;;;15.00;62.10;;;;;;5080801;28;20055;-52
2022/11/16 00:32:47;;;;;;;7.72;4.32;;;15.10;62.30;;;;;;5083804;28;20067;-53
2022/11/16 00:35:14;;;;;;;6.50;4.35;;;15.10;62.30;;;;;;5083805;28;20408;-52
2022/11/16 00:37:41;;;;;;;7.43;4.82;;;15.10;62.30;;;;;;5083647;28;20051;-53
2022/11/16 00:40:11;;;;;;;7.30;4.35;;;15.00;62.30;;;;;;5080040;28;20055;-53
2022/11/16 00:42:39;;;;;;;5.78;4.15;;;15.00;62.40;;;;;;5082909;28;20411;-50
2022/11/16 00:45:07;;;;;;;8.43;4.75;;;15.10;62.40;;;;;;5079665;28;20063;-52
2022/11/16 00:47:34;;;;;;;7.97;4.63;;;15.00;62.40;;;;;;5083723;28;20052;-53
2022/11/16 00:50:01;;;;;;;8.32;4.07;;;15.00;62.40;;;;;;5081764;28;20488;-48
2022/11/16 00:52:28;;;;;;;7.05;4.50;;;15.00;62.50;;;;;;5080420;28;20043;-52
2022/11/16 00:54:56;;;;;;;8.10;4.13;;;15.00;62.60;;;;;;5084296;28;20495;-52
2022/11/16 00:57:24;;;;;;;6.30;4.35;;;15.00;62.60;;;;;;5083026;28;20055;-52
2022/11/16 00:59:51;;;;;;;6.80;4.28;;;15.00;62.70;;;;;;5080971;28;20052;-53
2022/11/16 01:02:19;;;;;;;6.03;4.07;;;15.00;62.80;;;;;;5079278;28;20060;-51
2022/11/16 01:04:46;;;;;;;4.95;3.63;;;15.00;62.70;;;;;;5079327;28;20059;-52
2022/11/16 01:07:13;;;;;;;7.10;4.18;;;15.00;62.80;;;;;;5081480;28;20063;-46
2022/11/16 01:09:40;;;;;;;6.78;4.07;;;15.10;62.90;;;;;;5081828;28;20055;-47
2022/11/16 01:12:09;;;;;;;10.18;4.10;;;15.10;63.00;;;;;;5079327;28;20074;-48
2022/11/16 01:14:39;;;;;;;6.70;4.03;;;15.10;63.20;;;;;;5082364;28;20074;-53
2022/11/16 01:17:06;;;;;;;6.13;3.90;;;15.00;63.10;;;;;;5082112;28;20056;-51
2022/11/16 01:19:34;;;;;;;7.22;3.80;;;15.10;63.20;;;;;;5082786;28;20419;-54
2022/11/16 01:22:01;;;;;;;5.40;4.03;;;15.10;63.30;;;;;;5078609;28;20047;-54
2022/11/16 01:24:28;;;;;;;7.47;3.95;;;15.00;63.30;;;;;;5082128;28;20067;-54
2022/11/16 01:26:57;;;;;;;5.13;3.35;;;15.00;63.30;;;;;;5081602;28;20066;-54
2022/11/16 01:29:24;;;;;;;5.25;3.38;;;15.00;63.30;;;;;;5083631;28;20052;-49
2022/11/16 01:31:53;;;;;;;5.75;3.78;;;15.10;63.50;;;;;;5076870;28;20044;-53
2022/11/16 01:34:20;;;;;;;7.90;3.88;;;15.00;63.50;;;;;;5082249;28;20146;-53
2022/11/16 01:36:48;;;;;;;5.63;3.80;;;15.00;63.50;;;;;;5082018;28;20052;-47
2022/11/16 01:39:16;;;;;;;4.57;3.38;;;15.00;63.60;;;;;;5079748;28;20044;-51
2022/11/16 01:41:44;;;;;;;4.80;3.38;;;15.00;63.60;;;;;;5079554;28;20052;-54
2022/11/16 01:44:44;;;;;;;3.97;3.15;;;15.00;63.60;;;;;;5081370;28;20476;-54
2022/11/16 01:47:15;;;;;;;5.70;2.97;;;15.00;63.90;;;;;;5081802;28;20063;-52
2022/11/16 01:49:45;;;;;;;5.32;3.15;;;15.10;63.80;;;;;;5080570;28;20381;-53
2022/11/16 01:52:16;;;;;;;3.92;2.60;;;15.00;63.70;;;;;;5078473;28;20048;-52
2022/11/16 01:54:46;;;;;;;4.25;2.90;;;15.00;63.70;;;;;;5084573;28;20052;-53
2022/11/16 01:57:18;;;;;;;3.75;2.50;;;15.00;63.80;;;;;;5086671;28;20051;-52
2022/11/16 01:59:46;;;;;;;4.25;2.70;;;15.00;63.90;;;;;;5086507;28;20048;-54
2022/11/16 02:02:15;;;;;;;3.53;2.20;;;15.10;63.90;;;;;;5082606;28;20048;-51
2022/11/16 02:04:44;;;;;;;2.50;2.20;;;15.10;63.90;;;;;;5085252;28;20056;-53
2022/11/16 02:07:17;;;;;;;4.35;2.33;;;15.00;63.90;;;;;;5084397;28;20048;-50
2022/11/16 02:09:57;;;;;;;2.57;1.70;;;15.00;64.00;;;;;;5084506;28;20052;-50
2022/11/16 02:12:50;;;;;;;3.55;1.52;;;15.10;64.00;;;;;;5083598;28;20048;-54
2022/11/16 02:15:24;;;;;;;2.08;1.27;;;15.10;64.00;;;;;;5085031;28;20078;-50
2022/11/16 02:18:05;;;;;;;1.20;1.00;;;15.10;64.00;;;;;;5087239;28;20479;-53
2022/11/16 02:21:00;;;;;;;0.70;0.70;;;15.00;64.00;;;;;;5083023;28;20484;-52
2022/11/16 02:24:12;;;;;;;0.95;0.80;;;15.00;64.00;;;;;;5085035;28;20044;-53
2022/11/16 02:27:05;;;;;;;1.08;0.80;;;15.10;64.00;;;;;;5084810;28;20063;-53
2022/11/16 02:29:37;;;;;;;0.82;0.55;;;15.00;63.90;;;;;;5084969;28;20503;-53
2022/11/16 02:32:09;;;;;;;1.52;0.68;;;15.00;63.80;;;;;;5081548;28;20047;-49
2022/11/16 02:34:40;;;;;;;1.15;0.60;;;15.10;63.90;;;;;;5084666;28;20063;-54
2022/11/16 02:37:12;;;;;;;1.00;0.60;;;15.00;63.90;;;;;;5081758;28;20067;-52
2022/11/16 02:39:40;;;;;;;0.88;0.50;;;15.00;63.90;;;;;;5080972;28;20056;-53
2022/11/16 02:42:11;;;;;;;2.05;0.50;;;15.10;64.00;;;;;;5080360;28;20065;-50
2022/11/16 02:44:44;;;;;;;1.15;0.43;;;15.10;64.00;;;;;;5085450;28;20066;-53
2022/11/16 02:47:18;;;;;;;0.98;0.52;;;15.10;64.00;;;;;;5084349;28;20066;-53
2022/11/16 02:49:50;;;;;;;0.63;0.60;;;15.10;64.00;;;;;;5085179;28;20044;-52
2022/11/16 02:52:18;;;;;;;0.40;0.40;;;15.10;63.90;;;;;;5080047;28;20056;-51
2022/11/16 02:54:45;;;;;;;1.40;0.65;;;15.10;63.80;;;;;;5086135;28;20056;-53
2022/11/16 02:57:37;;;;;;;0.32;0.30;;;15.10;63.80;;;;;;5085260;28;20060;-53
2022/11/16 03:00:10;;;;;;;0.30;0.30;;;15.10;63.80;;;;;;5083701;28;20052;-52
2022/11/16 03:02:46;;;;;;;0.28;0.28;;;15.10;63.70;;;;;;5084624;28;20055;-54
2022/11/16 03:05:18;;;;;;;2.92;0.43;;;15.10;63.70;;;;;;5083585;28;20063;-53
2022/11/16 03:07:51;;;;;;;0.40;0.40;;;15.10;63.60;;;;;;5084402;28;20480;-51
2022/11/16 03:13:02;;;;;;;0.50;0.50;;;15.20;63.60;;;;;;5083818;28;20048;-44
2022/11/16 03:15:31;;;;;;;0.90;0.55;;;15.20;63.50;;;;;;5082625;28;20056;-51
2022/11/16 03:18:00;;;;;;;0.70;0.60;;;15.10;63.40;;;;;;5084335;28;20052;-54
2022/11/16 03:20:30;;;;;;;1.42;0.88;;;15.20;63.40;;;;;;5078843;28;20063;-48
2022/11/16 03:22:59;;;;;;;1.27;0.80;;;15.20;63.40;;;;;;5083466;28;20067;-54
2022/11/16 03:25:31;;;;;;;1.13;0.82;;;15.20;63.50;;;;;;5083905;28;20052;-54
2022/11/16 03:28:07;;;;;;;5.28;1.23;;;15.20;63.50;;;;;;5083086;28;20048;-53
2022/11/16 03:30:39;;;;;;;5.50;1.30;;;15.20;63.40;;;;;;5081498;28;20056;-50
2022/11/16 03:33:15;;;;;;;3.15;1.38;;;15.20;63.40;;;;;;5083043;28;20056;-52
2022/11/16 03:35:48;;;;;;;1.90;1.23;;;15.20;63.40;;;;;;5084352;28;20048;-54
2022/11/16 03:38:17;;;;;;;1.30;1.20;;;15.20;63.40;;;;;;5083555;28;20059;-52
2022/11/16 03:40:46;;;;;;;1.73;1.00;;;15.10;63.30;;;;;;5080926;28;20048;-53
2022/11/16 03:43:15;;;;;;;1.35;1.17;;;15.10;63.30;;;;;;5083816;28;20511;-50
2022/11/16 03:45:45;;;;;;;1.40;1.00;;;15.10;63.30;;;;;;5082330;28;20419;-51
2022/11/16 03:48:13;;;;;;;3.75;1.40;;;15.10;63.30;;;;;;5084865;28;20063;-54
2022/11/16 03:50:42;;;;;;;2.20;1.15;;;15.10;63.30;;;;;;5080004;28;20408;-52
2022/11/16 03:53:10;;;;;;;1.85;1.00;;;15.10;63.30;;;;;;5083335;28;20396;-52
2022/11/16 03:55:37;;;;;;;2.13;1.20;;;15.10;63.30;;;;;;5082034;28;20052;-53
2022/11/16 03:58:04;;;;;;;1.48;1.20;;;15.10;63.30;;;;;;5083780;28;20415;-54
2022/11/16 04:00:32;;;;;;;1.10;1.00;;;15.10;63.30;;;;;;5080261;28;20056;-50
2022/11/16 04:03:00;;;;;;;2.78;1.20;;;15.10;63.30;;;;;;5084663;28;20063;-53
2022/11/16 04:24:51;;;;;;;1.20;1.10;;;15.10;62.80;;;;;;5081529;28;20054;-52
2022/11/16 04:30:09;;;;;;;1.27;1.17;;;15.10;63.00;;;;;;5087715;28;20067;-51
2022/11/16 04:38:07;;;;;;;2.78;1.48;;;15.10;63.20;;;;;;5088514;28;20075;-53
2022/11/16 04:40:34;;;;;;;1.98;1.40;;;15.00;63.20;;;;;;5075886;28;20415;-53
2022/11/16 04:43:03;;;;;;;4.85;3.63;;;15.00;63.30;;;;;;5079787;28;20048;-54
2022/11/16 04:48:17;;;;;;;4.15;2.25;;;15.00;63.50;;;;;;5085888;28;20068;-54
2022/11/16 04:50:47;;;;;;;4.20;1.98;;;15.00;63.50;;;;;;5078276;28;20048;-53
2022/11/16 04:53:14;;;;;;;2.83;1.50;;;15.00;63.60;;;;;;5080990;28;20055;-54
2022/11/16 04:55:41;;;;;;;2.03;1.67;;;15.00;63.60;;;;;;5080617;28;20488;-53
2022/11/16 04:58:09;;;;;;;2.45;1.50;;;15.00;63.60;;;;;;5084372;28;20075;-53
2022/11/16 05:00:37;;;;;;;1.50;1.30;;;15.00;63.80;;;;;;5077587;28;20052;-51
2022/11/16 05:03:05;;;;;;;2.25;1.20;;;15.00;63.80;;;;;;5079147;28;20066;-54
2022/11/16 05:05:32;;;;;;;1.58;1.10;;;15.00;63.80;;;;;;5079859;28;20060;-53
2022/11/16 05:08:01;;;;;;;1.63;1.02;;;14.90;63.80;;;;;;5083342;28;20063;-52
2022/11/16 05:10:28;;;;;;;1.63;1.23;;;15.00;63.90;;;;;;5080481;28;20488;-54
2022/11/16 05:12:57;;;;;;;1.60;1.05;;;14.90;63.90;;;;;;5081343;28;20048;-53
2022/11/16 05:15:24;;;;;;;13.95;6.50;;;14.90;64.00;;;;;;5080725;28;20068;-54
2022/11/16 05:17:53;;;;;;;7.78;3.22;;;15.00;64.00;;;;;;5077405;28;20051;-54
2022/11/16 05:24:32;;;;;;;1.48;1.02;;;15.00;64.00;;;;;;5087017;28;20507;-51
2022/11/16 05:25:54;;;;;;;1.45;0.90;;;15.00;64.00;;;;;;5082488;28;20055;-52
2022/11/16 05:28:21;;;;;;;1.65;0.80;;;15.00;63.90;;;;;;5078562;28;20416;-54
2022/11/16 05:30:49;;;;;;;1.67;0.70;;;15.00;63.90;;;;;;5077063;28;20044;-54
2022/11/16 05:33:17;;;;;;;2.13;0.50;;;15.00;63.90;;;;;;5079627;28;20381;-52
2022/11/16 05:35:44;;;;;;;0.90;0.60;;;15.00;63.90;;;;;;5080592;28;20385;-54
2022/11/16 05:38:13;;;;;;;1.50;0.60;;;15.00;63.90;;;;;;5079300;28;20044;-50
2022/11/16 05:40:40;;;;;;;1.20;0.52;;;15.00;63.80;;;;;;5082126;28;20062;-53
2022/11/16 05:43:07;;;;;;;1.27;0.70;;;14.90;63.70;;;;;;5081842;28;20051;-54
2022/11/16 05:45:35;;;;;;;0.88;0.55;;;15.00;63.80;;;;;;5079239;28;20388;-55
2022/11/16 05:48:02;;;;;;;1.60;0.65;;;15.00;63.70;;;;;;5080255;28;20051;-54
2022/11/16 05:50:29;;;;;;;1.10;0.50;;;15.00;63.60;;;;;;5079281;28;20510;-53
2022/11/16 05:52:56;;;;;;;7.13;0.70;;;15.00;63.50;;;;;;5081332;28;20052;-54
2022/11/16 05:55:25;;;;;;;3.22;0.50;;;15.00;63.40;;;;;;5081453;28;20510;-47
2022/11/16 05:57:52;;;;;;;0.60;0.47;;;15.00;63.20;;;;;;5083114;28;20044;-53
2022/11/16 06:00:20;;;;;;;1.80;0.60;;;15.00;63.10;;;;;;5082396;28;20587;-51
2022/11/16 06:02:47;;;;;;;0.60;0.50;;;15.00;63.10;;;;;;5080281;28;20055;-52
2022/11/16 06:05:14;;;;;;;1.30;0.52;;;15.00;63.00;;;;;;5080285;28;20496;-51
2022/11/16 06:07:41;;;;;;;0.77;0.50;;;15.00;62.90;;;;;;5080668;28;20093;-54
2022/11/16 06:10:09;;;;;;;0.60;0.45;;;15.00;62.70;;;;;;5081587;28;20052;-53
2022/11/16 06:12:38;;;;;;;1.20;0.70;;;14.90;62.60;;;;;;5080544;28;20048;-54
2022/11/16 06:15:06;;;;;;;1.63;0.50;;;14.90;62.50;;;;;;5081353;28;20048;-52
2022/11/16 06:17:33;;;;;;;1.02;0.50;;;14.90;62.40;;;;;;5081583;28;20483;-53
2022/11/16 06:20:00;;;;;;;1.45;0.63;;;14.80;62.10;;;;;;5082121;28;20063;-50
2022/11/16 06:22:27;;;;;;;2.00;0.50;;;14.80;62.00;;;;;;5080127;28;20047;-53
2022/11/16 06:24:54;;;;;;;0.50;0.40;;;14.80;61.90;;;;;;5080675;28;20048;-54
2022/11/16 06:27:22;;;;;;;0.52;0.40;;;14.80;61.90;;;;;;5078424;28;20426;-54
2022/11/16 06:29:50;;;;;;;2.25;0.60;;;14.70;61.90;;;;;;5078190;28;20056;-53
2022/11/16 06:32:17;;;;;;;1.05;0.80;;;14.70;61.90;;;;;;5076834;28;20423;-53
2022/11/16 06:34:45;;;;;;;5.38;1.63;;;14.70;61.80;;;;;;5080310;28;20056;-53
2022/11/16 06:37:12;;;;;;;3.13;1.50;;;14.70;61.80;;;;;;5082712;28;20052;-54
2022/11/16 06:39:39;;;;;;;7.00;1.13;;;14.60;61.70;;;;;;5083128;28;20447;-54
2022/11/16 06:42:06;;;;;;;6.90;1.13;;;14.60;61.80;;;;;;5084654;28;20138;-54
2022/11/16 06:44:35;;;;;;;4.50;1.25;;;14.60;61.90;;;;;;5084338;28;20052;-54
2022/11/16 06:47:04;;;;;;;2.35;0.82;;;14.60;62.00;;;;;;5083982;28;20381;-53
2022/11/16 06:49:31;;;;;;;2.38;0.75;;;14.60;62.10;;;;;;5084935;28;20083;-52
2022/11/16 06:51:58;;;;;;;2.00;0.95;;;14.60;62.30;;;;;;5080714;28;20055;-53
2022/11/16 06:54:25;;;;;;;2.15;0.77;;;14.60;62.40;;;;;;5081307;28;20055;-53
2022/11/16 06:56:53;;;;;;;7.03;0.95;;;14.60;62.40;;;;;;5083631;28;20059;-49
2022/11/16 06:59:20;;;;;;;6.30;1.58;;;14.60;62.50;;;;;;5081261;28;20063;-50
2022/11/16 07:01:47;;;;;;;5.15;1.10;;;14.60;62.60;;;;;;5073646;28;20048;-53
2022/11/16 07:04:15;;;;;;;2.92;1.13;;;14.50;62.60;;;;;;5080072;28;20134;-51
2022/11/16 07:06:43;;;;;;;2.92;1.08;;;14.50;62.60;;;;;;5085121;28;20492;-57
2022/11/16 07:09:10;;;;;;;1.98;1.20;;;14.50;62.60;;;;;;5082560;28;20059;-55
2022/11/16 07:11:37;;;;;;;8.73;1.35;;;14.50;62.60;;;;;;5081439;28;20052;-55
2022/11/16 07:14:05;;;;;;;2.85;1.17;;;14.50;62.70;;;;;;5084820;28;20052;-55
2022/11/16 07:16:34;;;;;;;1.88;0.70;;;14.50;62.50;;;;;;5084154;28;20056;-56
2022/11/16 07:19:02;;;;;;;3.22;0.98;;;14.50;62.40;;;;;;5082892;28;20060;-55
2022/11/16 07:21:31;;;;;;;5.65;1.33;;;14.50;62.30;;;;;;5083260;28;20052;-57
2022/11/16 07:23:58;;;;;;;3.97;1.05;;;14.50;62.20;;;;;;5084457;28;20484;-56
2022/11/16 07:26:25;;;;;;;3.85;1.50;;;14.50;61.90;;;;;;5082809;28;20054;-52
2022/11/16 07:28:52;;;;;;;1.40;0.90;;;14.50;61.70;;;;;;5083493;28;20051;-54
2022/11/16 07:31:20;;;;;;;2.55;0.95;;;14.40;61.50;;;;;;5078232;28;20048;-56
2022/11/16 07:33:47;;;;;;;4.75;1.35;;;14.40;61.40;;;;;;5084341;28;20052;-57
2022/11/16 07:36:15;;;;;;;4.82;2.00;;;14.40;61.20;;;;;;5084474;28;20048;-56
2022/11/16 07:38:44;;;;;;;2.85;0.93;;;14.40;61.10;;;;;;5083664;28;20060;-55
2022/11/16 07:41:13;;;;;;;4.03;1.67;;;14.30;60.90;;;;;;5081094;28;20071;-55
2022/11/16 07:43:41;;;;;;;6.88;1.30;;;14.30;60.90;;;;;;5082163;28;20044;-53
2022/11/16 07:46:11;;;;;;;5.82;1.75;;;14.30;60.90;;;;;;5084124;28;20058;-56
2022/11/16 07:48:39;;;;;;;5.55;1.48;;;14.30;60.80;;;;;;5084789;28;20052;-53
2022/11/16 07:51:08;;;;;;;3.70;1.25;;;14.20;60.60;;;;;;5080717;28;20044;-56
2022/11/16 07:53:36;;;;;;;4.20;1.23;;;14.20;60.60;;;;;;5083187;28;20048;-57
2022/11/16 07:56:06;;;;;;;5.57;1.40;;;14.10;60.30;;;;;;5084917;28;20416;-56
2022/11/16 07:58:34;;;;;;;7.18;1.30;;;14.10;60.20;;;;;;5078910;28;20052;-57
2022/11/16 08:01:05;;;;;;;8.45;1.25;;;14.10;60.00;;;;;;5081633;28;20048;-59
2022/11/16 08:03:33;;;;;;;8.02;0.82;;;14.00;59.60;;;;;;5082055;28;20048;-54
2022/11/16 08:06:02;;;;;;;5.43;1.10;;;14.10;59.60;;;;;;5082160;28;20044;-56
2022/11/16 08:08:29;;;;;;;3.83;1.25;;;14.00;59.60;;;;;;5081744;28;20114;-55
2022/11/16 08:11:00;;;;;;;20.95;1.48;;;14.00;59.70;;;;;;5078766;28;20381;-51
2022/11/16 08:13:32;;;;;;;3.65;1.00;;;14.00;59.80;;;;;;5082814;28;20056;-52
2022/11/16 08:16:00;;;;;;;3.58;0.82;;;13.90;60.00;;;;;;5080528;28;20051;-55
2022/11/16 08:18:28;;;;;;;3.45;0.80;;;14.00;60.20;;;;;;5083562;28;20058;-53
2022/11/16 08:20:55;;;;;;;5.45;1.13;;;14.00;60.20;;;;;;5074445;28;20047;-50
2022/11/16 08:23:22;;;;;;;5.25;1.10;;;14.00;60.20;;;;;;5080315;28;20094;-50
2022/11/16 08:25:49;;;;;;;3.55;1.00;;;14.00;60.20;;;;;;5082643;28;20048;-54
2022/11/16 08:28:17;;;;;;;3.60;0.90;;;14.00;60.20;;;;;;5082540;28;20054;-53
2022/11/16 08:30:47;;;;;;;9.10;1.20;;;14.00;60.40;;;;;;5075712;28;20385;-55
2022/11/16 08:33:15;;;;;;;6.55;1.23;;;14.00;60.60;;;;;;5074938;28;20055;-55
2022/11/16 08:35:42;;;;;;;3.88;1.25;;;14.00;60.70;;;;;;5079663;28;20399;-56
2022/11/16 08:38:09;;;;;;;4.38;0.70;;;14.00;60.50;;;;;;5083401;28;20059;-56
2022/11/16 08:40:37;;;;;;;2.83;1.08;;;14.00;60.40;;;;;;5078549;28;20058;-54
2022/11/16 08:43:04;;;;;;;4.13;1.40;;;14.00;60.40;;;;;;5077097;28;20492;-53
2022/11/16 08:45:32;;;;;;;2.63;0.90;;;14.00;60.20;;;;;;5079230;28;20071;-55
2022/11/16 08:48:01;;;;;;;7.18;1.20;;;14.00;60.20;;;;;;5083390;28;20048;-53
2022/11/16 08:50:28;;;;;;;6.70;1.27;;;14.00;60.10;;;;;;5080183;28;20052;-53
2022/11/16 08:52:57;;;;;;;4.75;1.35;;;14.00;60.10;;;;;;5082543;28;20060;-56
2022/11/16 08:55:24;;;;;;;6.13;1.20;;;14.10;60.20;;;;;;5080581;28;20044;-52
2022/11/16 08:57:51;;;;;;;4.03;0.80;;;14.00;60.10;;;;;;5083433;28;20079;-51
2022/11/16 09:00:19;;;;;;;6.35;1.00;;;14.10;60.30;;;;;;5079722;28;20056;-54
2022/11/16 09:02:46;;;;;;;6.05;1.23;;;14.10;60.30;;;;;;5082739;28;20063;-54
2022/11/16 09:05:15;;;;;;;12.32;1.23;;;14.10;60.40;;;;;;5079523;28;20408;-51
2022/11/16 09:07:44;;;;;;;4.45;0.73;;;14.10;60.40;;;;;;5081595;28;20060;-53
2022/11/16 09:10:13;;;;;;;11.18;1.40;;;14.10;60.40;;;;;;5078680;28;20067;-54
2022/11/16 09:12:40;;;;;;;7.30;1.00;;;14.10;60.30;;;;;;5081815;28;20559;-55
2022/11/16 09:15:08;;;;;;;12.77;1.45;;;14.10;60.30;;;;;;5079496;28;20044;-51
2022/11/16 09:17:36;;;;;;;4.15;1.20;;;14.10;60.20;;;;;;5082913;28;20059;-55
2022/11/16 09:20:03;;;;;;;9.52;1.10;;;14.10;60.30;;;;;;5079185;28;20055;-54
2022/11/16 09:22:32;;;;;;;6.80;1.35;;;14.20;60.40;;;;;;5081320;28;20415;-55
2022/11/16 09:24:59;;;;;;;5.47;1.42;;;14.10;60.30;;;;;;5081422;28;20064;-54
2022/11/16 09:27:27;;;;;;;8.15;1.23;;;14.20;60.30;;;;;;5081993;28;20048;-54
2022/11/16 09:29:54;;;;;;;5.95;1.02;;;14.20;60.40;;;;;;5080781;28;20388;-54
2022/11/16 09:32:21;;;;;;;6.97;1.15;;;14.20;60.30;;;;;;5079906;28;20052;-53
2022/11/16 09:34:48;;;;;;;7.80;1.23;;;14.20;60.30;;;;;;5077694;28;20056;-54
2022/11/16 09:37:15;;;;;;;3.60;0.80;;;14.20;60.10;;;;;;5079235;28;20055;-54
2022/11/16 09:39:44;;;;;;;6.57;1.10;;;14.20;60.20;;;;;;5080269;28;20056;-54
2022/11/16 09:42:25;;;;;;;11.13;1.30;;;14.20;60.20;;;;;;5079729;28;20051;-55
2022/11/16 09:45:03;;;;;;;11.65;1.55;;;14.20;60.20;;;;;;5078257;28;21291;-54
2022/11/16 09:47:40;;;;;;;7.47;1.30;;;14.20;59.70;;;;;;5081247;28;20048;-52
2022/11/16 09:50:31;;;;;;;6.70;1.00;;;14.20;59.70;;;;;;5077401;28;20052;-54
2022/11/16 09:53:07;;;;;;;5.10;1.30;;;14.20;59.70;;;;;;5081285;28;20063;-52
2022/11/16 09:55:42;;;;;;;10.35;1.23;;;14.20;59.70;;;;;;5080880;28;20535;-55
2022/11/16 09:58:15;;;;;;;6.07;0.90;;;14.20;59.60;;;;;;5079930;28;20051;-53
2022/11/16 10:00:46;;;;;;;8.95;1.48;;;14.20;59.70;;;;;;5079410;28;20052;-52
2022/11/16 10:03:15;;;;;;;11.90;1.77;;;14.20;59.70;;;;;;5081151;28;20412;-50
2022/11/16 10:05:50;;;;;;;6.47;1.25;;;14.30;59.80;;;;;;5081680;28;20130;-54
2022/11/16 10:08:23;;;;;;;5.45;1.10;;;14.20;59.70;;;;;;5078376;28;20742;-53
2022/11/16 10:11:00;;;;;;;8.82;1.25;;;14.30;59.70;;;;;;5076665;28;20057;-51
2022/11/16 10:13:42;;;;;;;7.20;1.30;;;14.30;59.70;;;;;;5079294;28;20511;-51
2022/11/16 10:16:18;;;;;;;6.35;1.40;;;14.30;59.70;;;;;;5082373;28;20059;-55
2022/11/16 10:18:55;;;;;;;9.07;1.55;;;14.30;59.60;;;;;;5084642;28;20048;-56
2022/11/16 10:21:36;;;;;;;7.97;1.35;;;14.30;59.70;;;;;;5084199;28;20052;-55
2022/11/16 10:24:27;;;;;;;7.32;1.33;;;14.30;59.50;;;;;;5083375;28;20065;-54
2022/11/16 10:27:18;;;;;;;4.70;0.95;;;14.40;59.60;;;;;;5065267;28;20063;-55
2022/11/16 10:29:55;;;;;;;6.60;1.08;;;14.40;59.50;;;;;;5082130;28;20050;-55
2022/11/16 10:32:27;;;;;;;5.50;0.98;;;14.50;59.60;;;;;;5082375;28;20060;-54
2022/11/16 10:35:00;;;;;;;7.35;1.17;;;14.50;59.60;;;;;;5080478;28;20052;-53
2022/11/16 10:37:31;;;;;;;6.65;0.95;;;14.50;59.60;;;;;;5080113;28;20067;-51
2022/11/16 10:39:58;;;;;;;8.98;1.50;;;14.50;59.50;;;;;;5081309;28;20048;-53
2022/11/16 10:42:35;;;;;;;10.40;1.10;;;14.50;59.50;;;;;;5081409;28;20059;-53
2022/11/16 10:45:14;;;;;;;10.35;1.30;;;14.60;59.50;;;;;;5066149;28;20066;-53
2022/11/16 10:47:48;;;;;;;7.47;1.23;;;14.60;59.50;;;;;;5079969;28;20419;-55
2022/11/16 10:50:37;;;;;;;9.48;1.50;;;14.60;59.50;;;;;;5083331;28;20047;-53
2022/11/16 10:53:04;;;;;;;6.82;2.00;;;14.60;59.50;;;;;;5082231;28;20400;-49
2022/11/16 10:55:31;;;;;;;17.67;3.70;;;14.70;59.50;;;;;;5085258;28;20048;-51
2022/11/16 10:58:02;;;;;;;8.20;1.63;;;14.70;59.50;;;;;;5085943;28;20056;-54
2022/11/16 11:00:46;;;;;;;11.07;1.55;;;14.70;59.90;;;;;;5081402;28;20056;-55
2022/11/16 11:03:13;;;;;;;5.57;1.37;;;14.70;59.30;;;;;;5084689;28;20544;-53
2022/11/16 11:05:51;;;;;;;7.60;1.13;;;14.80;59.30;;;;;;5085213;28;20055;-53
2022/11/16 11:08:29;;;;;;;4.63;1.10;;;14.80;59.30;;;;;;5080907;28;20055;-54
2022/11/16 11:12:36;;;;;;;7.80;1.45;;;14.80;59.30;;;;;;5075297;28;20044;-51
2022/11/16 11:14:05;;;;;;;7.35;1.48;;;14.80;59.30;;;;;;5083744;28;20060;-53
2022/11/16 11:16:32;;;;;;;7.10;1.40;;;14.80;59.30;;;;;;5079977;28;20052;-55
2022/11/16 11:19:17;;;;;;;10.88;1.42;;;14.90;59.20;;;;;;5078334;28;20052;-55
2022/11/16 11:21:45;;;;;;;5.10;1.15;;;14.90;59.10;;;;;;5081465;28;20048;-49
2022/11/16 11:24:16;;;;;;;5.38;1.23;;;14.90;59.10;;;;;;5080633;28;20585;-50
2022/11/16 11:26:48;;;;;;;5.05;1.23;;;14.90;58.90;;;;;;5082384;28;20075;-52
2022/11/16 11:29:24;;;;;;;10.85;1.38;;;14.90;58.70;;;;;;5082358;28;20419;-51
2022/11/16 11:31:54;;;;;;;13.15;2.05;;;14.90;58.70;;;;;;5084256;28;20048;-55
2022/11/16 11:34:24;;;;;;;9.93;2.38;;;14.90;58.60;;;;;;5085244;28;20492;-56
2022/11/16 11:36:55;;;;;;;10.45;1.98;;;14.90;58.60;;;;;;5083098;28;20052;-57
2022/11/16 11:39:34;;;;;;;15.55;1.55;;;14.90;58.30;;;;;;5084402;28;20067;-55
2022/11/16 11:42:18;;;;;;;6.43;1.15;;;14.90;58.30;;;;;;5083656;28;20083;-55
2022/11/16 11:44:50;;;;;;;;;;;15.00;58.30;;;;;;5085573;28;20079;-57
2022/11/16 11:47:33;;;;;;;5.35;1.05;;;15.00;58.40;;;;;;5081788;28;19923;-60
2022/11/16 11:50:10;;;;;;;6.88;0.98;;;15.00;57.90;;;;;;5083204;28;20048;-55
2022/11/16 11:52:42;;;;;;;9.77;1.73;;;15.00;57.80;;;;;;5084510;28;20079;-55
2022/11/16 11:55:16;;;;;;;5.75;0.82;;;15.00;57.80;;;;;;5083276;28;20052;-55
2022/11/16 11:57:46;;;;;;;9.43;1.23;;;15.00;57.70;;;;;;5082939;28;20051;-55
2022/11/16 12:00:16;;;;;;;8.30;1.10;;;15.00;57.60;;;;;;5084258;28;20048;-55
2022/11/16 12:03:05;;;;;;;4.22;0.90;;;15.00;57.40;;;;;;5084567;28;20535;-56
2022/11/16 12:05:57;;;;;;;4.50;1.38;;;15.00;57.30;;;;;;5082594;28;20048;-48
2022/11/16 12:08:40;;;;;;;8.02;1.40;;;15.10;57.70;;;;;;5082548;28;20055;-55
2022/11/16 12:11:16;;;;;;;4.78;1.05;;;15.10;57.30;;;;;;5081973;28;20044;-55
2022/11/16 12:14:00;;;;;;;6.47;1.40;;;15.10;57.10;;;;;;5083228;28;20052;-55
2022/11/16 12:16:35;;;;;;;9.43;1.52;;;15.20;57.10;;;;;;5079950;28;20051;-48
2022/11/16 12:19:24;;;;;;;3.65;0.98;;;15.20;57.10;;;;;;5083548;28;20060;-55
2022/11/16 12:22:05;;;;;;;3.28;0.90;;;15.30;57.30;;;;;;5079830;28;20496;-54
2022/11/16 12:24:47;;;;;;;3.30;0.88;;;15.30;57.30;;;;;;5081360;28;20060;-55
2022/11/16 12:27:25;;;;;;;5.80;0.80;;;15.30;57.20;;;;;;5082574;28;20052;-55
2022/11/16 12:30:01;;;;;;;7.05;1.15;;;15.30;56.80;;;;;;5083854;28;20078;-55
2022/11/16 12:32:50;;;;;;;9.35;1.05;;;15.40;56.60;;;;;;5083127;28;20083;-56
2022/11/16 12:35:40;;;;;;;17.40;7.47;;;15.40;56.10;;;;;;5083380;28;20060;-56
2022/11/16 12:38:39;;;;;;;18.50;6.97;;;15.40;56.20;;;;;;5077999;28;20487;-55
2022/11/16 12:41:23;;;;;;;18.15;8.65;;;15.50;56.20;;;;;;5063618;28;20059;-56
2022/11/16 12:43:59;;;;;;;16.98;8.35;;;15.50;56.20;;;;;;5081335;28;20056;-52
2022/11/16 12:46:36;;;;;;;16.23;3.88;;;15.60;56.00;;;;;;5081301;28;20055;-51
2022/11/16 12:49:32;;;;;;;8.73;3.22;;;15.60;56.00;;;;;;5081166;28;20052;-53
2022/11/16 12:52:14;;;;;;;9.65;1.92;;;15.60;55.60;;;;;;5081024;28;20059;-52
2022/11/16 12:54:59;;;;;;;6.10;1.35;;;15.60;55.60;;;;;;5083675;28;20443;-54
2022/11/16 12:57:36;;;;;;;7.55;1.75;;;15.60;55.50;;;;;;5084040;28;20500;-54
2022/11/16 13:00:09;;;;;;;7.00;1.40;;;15.60;55.20;;;;;;5082511;28;20130;-53
2022/11/16 13:02:54;;;;;;;6.03;1.20;;;15.60;55.00;;;;;;5083475;28;20063;-54
2022/11/16 13:05:25;;;;;;;6.07;1.17;;;15.60;54.90;;;;;;5082581;28;20060;-54
2022/11/16 13:07:55;;;;;;;8.68;1.42;;;15.60;55.30;;;;;;5082204;28;20051;-56
2022/11/16 13:10:27;;;;;;;5.35;1.10;;;15.60;55.30;;;;;;5082280;28;20052;-54
2022/11/16 13:13:00;;;;;;;6.03;2.33;;;15.60;55.30;;;;;;5083676;28;20545;-54
2022/11/16 13:15:36;;;;;;;9.10;1.80;;;15.70;55.00;;;;;;5083082;28;20521;-47
2022/11/16 13:18:06;;;;;;;6.93;1.33;;;15.70;54.80;;;;;;5083641;28;20412;-55
2022/11/16 13:20:41;;;;;;;4.20;0.90;;;15.60;54.70;;;;;;5081191;28;20054;-51
2022/11/16 13:23:16;;;;;;;6.00;1.13;;;15.60;54.60;;;;;;5081988;28;20063;-55
2022/11/16 13:25:48;;;;;;;4.05;0.80;;;15.70;54.80;;;;;;5083660;28;20400;-56
2022/11/16 13:28:22;;;;;;;6.50;1.65;;;15.70;54.90;;;;;;5082457;28;20071;-55
2022/11/16 13:30:56;;;;;;;;;;;15.70;55.10;;;;;;5081805;28;20044;-56
2022/11/16 13:33:38;;;;;;;6.78;1.02;;;15.70;55.20;;;;;;5081968;28;20394;-56
2022/11/16 13:36:44;;;;;;;7.40;1.52;;;15.80;55.00;;;;;;5081935;28;20060;-51
2022/11/16 13:39:16;;;;;;;5.40;1.40;;;15.80;55.00;;;;;;5082047;28;20052;-54
2022/11/16 13:41:46;;;;;;;4.47;1.50;;;15.80;54.80;;;;;;5079687;28;20056;-55
2022/11/16 13:44:23;;;;;;;6.82;1.27;;;15.80;54.80;;;;;;5083443;28;20056;-52